sensor_id;sensor_type;location;lat;lon;timestamp;temperature;humidity
28761;DHT22;15917;50.014;8.352;2023-04-03T00:02:25;6.10;99.90
28761;DHT22;15917;50.014;8.352;2023-04-03T00:04:50;6.10;99.90
28761;DHT22;15917;50.014;8.352;2023-04-03T00:07:16;6.10;99.90
28761;DHT22;15917;50.014;8.352;2023-04-03T00:09:42;6.10;99.90
28761;DHT22;15917;50.014;8.352;2023-04-03T00:12:07;6.10;99.90
28761;DHT22;15917;50.014;8.352;2023-04-03T00:14:33;6.10;99.90
28761;DHT22;15917;50.014;8.352;2023-04-03T00:16:58;6.10;99.90
28761;DHT22;15917;50.014;8.352;2023-04-03T00:19:24;6.10;99.90
28761;DHT22;15917;50.014;8.352;2023-04-03T00:21:49;6.10;99.90
28761;DHT22;15917;50.014;8.352;2023-04-03T00:24:15;6.10;99.90
28761;DHT22;15917;50.014;8.352;2023-04-03T00:26:41;6.10;99.90
28761;DHT22;15917;50.014;8.352;2023-04-03T00:29:06;6.10;99.90
28761;DHT22;15917;50.014;8.352;2023-04-03T00:31:32;6.00;99.90
28761;DHT22;15917;50.014;8.352;2023-04-03T00:33:58;6.00;99.90
28761;DHT22;15917;50.014;8.352;2023-04-03T00:36:23;6.00;99.90
28761;DHT22;15917;50.014;8.352;2023-04-03T00:38:49;6.10;99.90
28761;DHT22;15917;50.014;8.352;2023-04-03T00:41:15;6.10;99.90
28761;DHT22;15917;50.014;8.352;2023-04-03T00:43:41;6.10;99.90
28761;DHT22;15917;50.014;8.352;2023-04-03T00:46:07;6.10;99.90
28761;DHT22;15917;50.014;8.352;2023-04-03T00:48:40;6.10;99.90
28761;DHT22;15917;50.014;8.352;2023-04-03T00:51:08;6.10;99.90
28761;DHT22;15917;50.014;8.352;2023-04-03T00:53:39;6.10;99.90
28761;DHT22;15917;50.014;8.352;2023-04-03T00:56:07;6.10;99.90
28761;DHT22;15917;50.014;8.352;2023-04-03T00:58:47;6.10;99.90
28761;DHT22;15917;50.014;8.352;2023-04-03T01:01:20;6.10;99.90
28761;DHT22;15917;50.014;8.352;2023-04-03T01:03:47;6.10;99.90
28761;DHT22;15917;50.014;8.352;2023-04-03T01:06:16;6.10;99.90
28761;DHT22;15917;50.014;8.352;2023-04-03T01:08:44;6.10;99.90
28761;DHT22;15917;50.014;8.352;2023-04-03T01:11:10;6.10;99.90
28761;DHT22;15917;50.014;8.352;2023-04-03T01:13:36;6.10;99.90
28761;DHT22;15917;50.014;8.352;2023-04-03T01:16:06;6.10;99.90
28761;DHT22;15917;50.014;8.352;2023-04-03T01:18:32;6.20;99.90
28761;DHT22;15917;50.014;8.352;2023-04-03T01:26:21;6.20;99.90
28761;DHT22;15917;50.014;8.352;2023-04-03T01:28:48;6.20;99.90
28761;DHT22;15917;50.014;8.352;2023-04-03T01:31:24;6.20;99.90
28761;DHT22;15917;50.014;8.352;2023-04-03T01:33:54;6.20;99.90
28761;DHT22;15917;50.014;8.352;2023-04-03T01:36:29;6.20;99.90
28761;DHT22;15917;50.014;8.352;2023-04-03T01:38:57;6.20;99.90
28761;DHT22;15917;50.014;8.352;2023-04-03T01:41:23;6.20;99.90
28761;DHT22;15917;50.014;8.352;2023-04-03T01:43:51;6.30;99.90
28761;DHT22;15917;50.014;8.352;2023-04-03T01:46:17;6.20;99.90
28761;DHT22;15917;50.014;8.352;2023-04-03T01:48:43;6.20;99.90
28761;DHT22;15917;50.014;8.352;2023-04-03T01:51:09;6.20;99.90
28761;DHT22;15917;50.014;8.352;2023-04-03T01:53:35;6.20;99.90
28761;DHT22;15917;50.014;8.352;2023-04-03T01:56:01;6.20;99.90
28761;DHT22;15917;50.014;8.352;2023-04-03T01:58:26;6.20;99.90
28761;DHT22;15917;50.014;8.352;2023-04-03T02:00:53;6.20;99.90
28761;DHT22;15917;50.014;8.352;2023-04-03T02:03:19;6.20;99.90
28761;DHT22;15917;50.014;8.352;2023-04-03T02:05:45;6.20;99.90
28761;DHT22;15917;50.014;8.352;2023-04-03T02:08:10;6.20;99.90
28761;DHT22;15917;50.014;8.352;2023-04-03T02:10:36;6.20;99.90
28761;DHT22;15917;50.014;8.352;2023-04-03T02:13:02;6.20;99.90
28761;DHT22;15917;50.014;8.352;2023-04-03T02:15:28;6.20;99.90
28761;DHT22;15917;50.014;8.352;2023-04-03T02:17:53;6.20;99.90
28761;DHT22;15917;50.014;8.352;2023-04-03T02:20:20;6.20;99.90
28761;DHT22;15917;50.014;8.352;2023-04-03T02:22:46;6.10;99.90
28761;DHT22;15917;50.014;8.352;2023-04-03T02:25:11;6.10;99.90
28761;DHT22;15917;50.014;8.352;2023-04-03T02:27:38;6.10;99.90
28761;DHT22;15917;50.014;8.352;2023-04-03T02:30:05;6.20;99.90
28761;DHT22;15917;50.014;8.352;2023-04-03T02:32:31;6.10;99.90
28761;DHT22;15917;50.014;8.352;2023-04-03T02:34:57;6.10;99.90
28761;DHT22;15917;50.014;8.352;2023-04-03T02:37:23;6.10;99.90
28761;DHT22;15917;50.014;8.352;2023-04-03T02:39:50;6.10;99.90
28761;DHT22;15917;50.014;8.352;2023-04-03T02:42:16;6.10;99.90
28761;DHT22;15917;50.014;8.352;2023-04-03T02:44:41;6.10;99.90
28761;DHT22;15917;50.014;8.352;2023-04-03T02:47:08;6.10;99.90
28761;DHT22;15917;50.014;8.352;2023-04-03T02:49:34;6.10;99.90
28761;DHT22;15917;50.014;8.352;2023-04-03T02:52:00;6.10;99.90
28761;DHT22;15917;50.014;8.352;2023-04-03T02:54:26;6.10;99.90
28761;DHT22;15917;50.014;8.352;2023-04-03T02:56:55;6.10;99.90
28761;DHT22;15917;50.014;8.352;2023-04-03T02:59:21;6.10;99.90
28761;DHT22;15917;50.014;8.352;2023-04-03T03:01:47;6.10;99.90
28761;DHT22;15917;50.014;8.352;2023-04-03T03:04:12;6.10;99.90
28761;DHT22;15917;50.014;8.352;2023-04-03T03:06:38;6.10;99.90
28761;DHT22;15917;50.014;8.352;2023-04-03T03:09:04;6.10;99.90
28761;DHT22;15917;50.014;8.352;2023-04-03T03:11:31;6.10;99.90
28761;DHT22;15917;50.014;8.352;2023-04-03T03:13:57;6.10;99.90
28761;DHT22;15917;50.014;8.352;2023-04-03T03:16:24;6.10;99.90
28761;DHT22;15917;50.014;8.352;2023-04-03T03:18:50;6.00;99.90
28761;DHT22;15917;50.014;8.352;2023-04-03T03:21:16;6.00;99.90
28761;DHT22;15917;50.014;8.352;2023-04-03T03:23:41;6.00;99.90
28761;DHT22;15917;50.014;8.352;2023-04-03T03:26:09;6.00;99.90
28761;DHT22;15917;50.014;8.352;2023-04-03T03:28:36;6.00;99.90
28761;DHT22;15917;50.014;8.352;2023-04-03T03:31:02;5.90;99.90
28761;DHT22;15917;50.014;8.352;2023-04-03T03:33:28;5.90;99.90
28761;DHT22;15917;50.014;8.352;2023-04-03T03:35:54;5.90;99.90
28761;DHT22;15917;50.014;8.352;2023-04-03T03:38:20;5.80;99.90
28761;DHT22;15917;50.014;8.352;2023-04-03T03:40:50;5.80;99.90
28761;DHT22;15917;50.014;8.352;2023-04-03T03:43:19;5.80;99.90
28761;DHT22;15917;50.014;8.352;2023-04-03T03:45:50;5.80;99.90
28761;DHT22;15917;50.014;8.352;2023-04-03T03:48:17;5.80;99.90
28761;DHT22;15917;50.014;8.352;2023-04-03T03:50:42;5.70;99.90
28761;DHT22;15917;50.014;8.352;2023-04-03T03:53:08;5.70;99.90
28761;DHT22;15917;50.014;8.352;2023-04-03T03:55:34;5.60;99.90
28761;DHT22;15917;50.014;8.352;2023-04-03T03:57:59;5.60;99.90
28761;DHT22;15917;50.014;8.352;2023-04-03T04:00:27;5.60;99.90
28761;DHT22;15917;50.014;8.352;2023-04-03T04:02:55;5.60;99.90
28761;DHT22;15917;50.014;8.352;2023-04-03T04:05:22;5.50;99.90
28761;DHT22;15917;50.014;8.352;2023-04-03T04:07:48;5.50;99.90
28761;DHT22;15917;50.014;8.352;2023-04-03T04:10:14;5.50;99.90
28761;DHT22;15917;50.014;8.352;2023-04-03T04:12:41;5.40;99.90
28761;DHT22;15917;50.014;8.352;2023-04-03T04:15:07;5.40;99.90
28761;DHT22;15917;50.014;8.352;2023-04-03T04:17:33;5.40;99.90
28761;DHT22;15917;50.014;8.352;2023-04-03T04:20:04;5.40;99.90
28761;DHT22;15917;50.014;8.352;2023-04-03T04:22:31;5.20;99.90
28761;DHT22;15917;50.014;8.352;2023-04-03T04:24:56;5.20;99.90
28761;DHT22;15917;50.014;8.352;2023-04-03T04:27:22;5.20;99.90
28761;DHT22;15917;50.014;8.352;2023-04-03T04:29:48;5.20;99.90
28761;DHT22;15917;50.014;8.352;2023-04-03T04:32:14;5.30;99.90
28761;DHT22;15917;50.014;8.352;2023-04-03T04:34:40;5.20;99.90
28761;DHT22;15917;50.014;8.352;2023-04-03T04:37:05;5.20;99.90
28761;DHT22;15917;50.014;8.352;2023-04-03T04:39:31;5.20;99.90
28761;DHT22;15917;50.014;8.352;2023-04-03T04:41:58;5.20;99.90
28761;DHT22;15917;50.014;8.352;2023-04-03T04:44:26;5.10;99.90
28761;DHT22;15917;50.014;8.352;2023-04-03T04:46:52;5.10;99.90
28761;DHT22;15917;50.014;8.352;2023-04-03T04:49:20;5.10;99.90
28761;DHT22;15917;50.014;8.352;2023-04-03T04:51:45;5.00;99.90
28761;DHT22;15917;50.014;8.352;2023-04-03T04:54:12;4.90;99.90
28761;DHT22;15917;50.014;8.352;2023-04-03T04:56:38;4.90;99.90
28761;DHT22;15917;50.014;8.352;2023-04-03T04:59:04;4.80;99.90
28761;DHT22;15917;50.014;8.352;2023-04-03T05:01:30;4.70;99.90
28761;DHT22;15917;50.014;8.352;2023-04-03T05:04:04;4.70;99.90
28761;DHT22;15917;50.014;8.352;2023-04-03T05:06:30;4.70;99.90
28761;DHT22;15917;50.014;8.352;2023-04-03T05:08:58;4.70;99.90
28761;DHT22;15917;50.014;8.352;2023-04-03T05:11:24;4.60;99.90
28761;DHT22;15917;50.014;8.352;2023-04-03T05:13:51;4.50;99.90
28761;DHT22;15917;50.014;8.352;2023-04-03T05:16:18;4.50;99.90
28761;DHT22;15917;50.014;8.352;2023-04-03T05:18:43;4.50;99.90
28761;DHT22;15917;50.014;8.352;2023-04-03T05:21:15;4.50;99.90
28761;DHT22;15917;50.014;8.352;2023-04-03T05:23:43;4.50;99.90
28761;DHT22;15917;50.014;8.352;2023-04-03T05:26:09;4.60;99.90
28761;DHT22;15917;50.014;8.352;2023-04-03T05:28:35;4.50;99.90
28761;DHT22;15917;50.014;8.352;2023-04-03T05:31:01;4.50;99.90
28761;DHT22;15917;50.014;8.352;2023-04-03T05:33:32;4.50;99.90
28761;DHT22;15917;50.014;8.352;2023-04-03T05:36:03;4.50;99.90
28761;DHT22;15917;50.014;8.352;2023-04-03T05:38:30;4.50;99.90
28761;DHT22;15917;50.014;8.352;2023-04-03T05:40:57;4.50;99.90
28761;DHT22;15917;50.014;8.352;2023-04-03T05:43:22;4.50;99.90
28761;DHT22;15917;50.014;8.352;2023-04-03T05:45:50;4.50;99.90
28761;DHT22;15917;50.014;8.352;2023-04-03T05:48:16;4.40;99.90
28761;DHT22;15917;50.014;8.352;2023-04-03T05:50:42;4.50;99.90
28761;DHT22;15917;50.014;8.352;2023-04-03T05:53:25;4.50;99.90
28761;DHT22;15917;50.014;8.352;2023-04-03T05:55:53;4.50;99.90
28761;DHT22;15917;50.014;8.352;2023-04-03T05:58:20;4.50;99.90
28761;DHT22;15917;50.014;8.352;2023-04-03T06:00:47;4.50;99.90
28761;DHT22;15917;50.014;8.352;2023-04-03T06:03:12;4.60;99.90
28761;DHT22;15917;50.014;8.352;2023-04-03T06:05:38;4.60;99.90
28761;DHT22;15917;50.014;8.352;2023-04-03T06:08:04;4.60;99.90
28761;DHT22;15917;50.014;8.352;2023-04-03T06:10:30;4.60;99.90
28761;DHT22;15917;50.014;8.352;2023-04-03T06:12:56;5.90;99.90
28761;DHT22;15917;50.014;8.352;2023-04-03T06:15:22;7.20;99.90
28761;DHT22;15917;50.014;8.352;2023-04-03T06:17:48;7.20;99.90
28761;DHT22;15917;50.014;8.352;2023-04-03T06:20:14;6.60;99.90
28761;DHT22;15917;50.014;8.352;2023-04-03T06:22:40;6.20;99.90
28761;DHT22;15917;50.014;8.352;2023-04-03T06:25:07;5.80;99.90
28761;DHT22;15917;50.014;8.352;2023-04-03T06:27:33;5.60;99.90
28761;DHT22;15917;50.014;8.352;2023-04-03T06:29:58;5.40;99.90
28761;DHT22;15917;50.014;8.352;2023-04-03T06:32:24;5.40;99.90
28761;DHT22;15917;50.014;8.352;2023-04-03T06:34:50;5.30;99.90
28761;DHT22;15917;50.014;8.352;2023-04-03T06:37:21;5.20;99.90
28761;DHT22;15917;50.014;8.352;2023-04-03T06:39:47;5.20;99.90
28761;DHT22;15917;50.014;8.352;2023-04-03T06:42:13;5.10;99.90
28761;DHT22;15917;50.014;8.352;2023-04-03T06:44:47;5.10;99.90
28761;DHT22;15917;50.014;8.352;2023-04-03T06:47:14;5.10;99.90
28761;DHT22;15917;50.014;8.352;2023-04-03T06:49:40;5.10;99.90
28761;DHT22;15917;50.014;8.352;2023-04-03T06:52:07;5.10;99.90
28761;DHT22;15917;50.014;8.352;2023-04-03T06:54:33;5.10;99.90
28761;DHT22;15917;50.014;8.352;2023-04-03T06:56:59;5.10;99.90
28761;DHT22;15917;50.014;8.352;2023-04-03T06:59:25;5.10;99.90
28761;DHT22;15917;50.014;8.352;2023-04-03T07:01:50;5.20;99.90
28761;DHT22;15917;50.014;8.352;2023-04-03T07:04:16;5.20;99.90
28761;DHT22;15917;50.014;8.352;2023-04-03T07:06:42;5.20;99.90
28761;DHT22;15917;50.014;8.352;2023-04-03T07:09:09;5.20;99.90
28761;DHT22;15917;50.014;8.352;2023-04-03T07:11:35;5.30;99.90
28761;DHT22;15917;50.014;8.352;2023-04-03T07:14:02;5.20;99.90
28761;DHT22;15917;50.014;8.352;2023-04-03T07:16:27;5.30;99.90
28761;DHT22;15917;50.014;8.352;2023-04-03T07:18:53;5.30;99.90
28761;DHT22;15917;50.014;8.352;2023-04-03T07:21:18;5.30;99.90
28761;DHT22;15917;50.014;8.352;2023-04-03T07:23:44;5.40;99.90
28761;DHT22;15917;50.014;8.352;2023-04-03T07:26:10;5.40;99.90
28761;DHT22;15917;50.014;8.352;2023-04-03T07:28:36;5.40;99.90
28761;DHT22;15917;50.014;8.352;2023-04-03T07:31:03;5.50;99.90
28761;DHT22;15917;50.014;8.352;2023-04-03T07:33:30;5.50;99.90
28761;DHT22;15917;50.014;8.352;2023-04-03T07:35:56;5.40;99.90
28761;DHT22;15917;50.014;8.352;2023-04-03T07:38:22;5.50;99.90
28761;DHT22;15917;50.014;8.352;2023-04-03T07:40:49;5.60;99.90
28761;DHT22;15917;50.014;8.352;2023-04-03T07:43:16;5.70;99.90
28761;DHT22;15917;50.014;8.352;2023-04-03T07:45:42;5.70;99.90
28761;DHT22;15917;50.014;8.352;2023-04-03T07:48:12;5.80;99.90
28761;DHT22;15917;50.014;8.352;2023-04-03T07:50:40;5.80;99.90
28761;DHT22;15917;50.014;8.352;2023-04-03T07:53:06;5.90;99.90
28761;DHT22;15917;50.014;8.352;2023-04-03T07:55:32;6.00;99.90
28761;DHT22;15917;50.014;8.352;2023-04-03T07:57:57;6.00;99.90
28761;DHT22;15917;50.014;8.352;2023-04-03T08:00:23;6.20;99.90
28761;DHT22;15917;50.014;8.352;2023-04-03T08:02:49;6.30;99.90
28761;DHT22;15917;50.014;8.352;2023-04-03T08:05:20;6.40;99.90
28761;DHT22;15917;50.014;8.352;2023-04-03T08:07:46;6.40;99.90
28761;DHT22;15917;50.014;8.352;2023-04-03T08:10:12;6.50;99.90
28761;DHT22;15917;50.014;8.352;2023-04-03T08:12:38;6.70;99.90
28761;DHT22;15917;50.014;8.352;2023-04-03T08:15:04;6.80;99.90
28761;DHT22;15917;50.014;8.352;2023-04-03T08:17:30;6.80;99.90
28761;DHT22;15917;50.014;8.352;2023-04-03T08:19:56;6.90;99.90
28761;DHT22;15917;50.014;8.352;2023-04-03T08:22:22;7.10;99.90
28761;DHT22;15917;50.014;8.352;2023-04-03T08:24:47;7.20;99.90
28761;DHT22;15917;50.014;8.352;2023-04-03T08:27:13;7.30;99.90
28761;DHT22;15917;50.014;8.352;2023-04-03T08:29:38;7.40;99.90
28761;DHT22;15917;50.014;8.352;2023-04-03T08:32:04;7.60;99.90
28761;DHT22;15917;50.014;8.352;2023-04-03T08:34:31;7.70;99.90
28761;DHT22;15917;50.014;8.352;2023-04-03T08:37:00;7.80;99.90
28761;DHT22;15917;50.014;8.352;2023-04-03T08:39:26;7.80;99.90
28761;DHT22;15917;50.014;8.352;2023-04-03T08:41:55;7.90;99.90
28761;DHT22;15917;50.014;8.352;2023-04-03T08:47:23;8.10;99.90
28761;DHT22;15917;50.014;8.352;2023-04-03T08:49:59;8.30;99.90
28761;DHT22;15917;50.014;8.352;2023-04-03T08:52:44;8.20;99.90
28761;DHT22;15917;50.014;8.352;2023-04-03T08:55:26;8.40;99.90
28761;DHT22;15917;50.014;8.352;2023-04-03T08:58:04;8.50;99.90
28761;DHT22;15917;50.014;8.352;2023-04-03T09:00:57;8.50;99.90
28761;DHT22;15917;50.014;8.352;2023-04-03T09:03:24;8.60;99.90
28761;DHT22;15917;50.014;8.352;2023-04-03T09:05:57;8.80;99.90
28761;DHT22;15917;50.014;8.352;2023-04-03T09:08:36;8.80;99.90
28761;DHT22;15917;50.014;8.352;2023-04-03T09:11:24;9.00;99.90
28761;DHT22;15917;50.014;8.352;2023-04-03T09:14:22;9.20;99.90
28761;DHT22;15917;50.014;8.352;2023-04-03T09:16:57;9.00;99.90
28761;DHT22;15917;50.014;8.352;2023-04-03T09:19:45;8.80;99.90
28761;DHT22;15917;50.014;8.352;2023-04-03T09:22:23;8.80;99.90
28761;DHT22;15917;50.014;8.352;2023-04-03T09:27:37;8.80;99.90
28761;DHT22;15917;50.014;8.352;2023-04-03T09:30:03;8.50;99.90
28761;DHT22;15917;50.014;8.352;2023-04-03T09:32:34;8.40;99.90
28761;DHT22;15917;50.014;8.352;2023-04-03T09:35:06;8.30;99.90
28761;DHT22;15917;50.014;8.352;2023-04-03T09:40:46;8.30;99.90
28761;DHT22;15917;50.014;8.352;2023-04-03T09:43:34;8.20;99.90
28761;DHT22;15917;50.014;8.352;2023-04-03T09:48:51;8.90;99.90
28761;DHT22;15917;50.014;8.352;2023-04-03T09:51:17;9.10;99.90
28761;DHT22;15917;50.014;8.352;2023-04-03T09:53:44;9.20;99.90
28761;DHT22;15917;50.014;8.352;2023-04-03T09:58:50;9.20;99.90
28761;DHT22;15917;50.014;8.352;2023-04-03T10:01:38;8.90;99.90
28761;DHT22;15917;50.014;8.352;2023-04-03T10:06:36;9.10;99.90
28761;DHT22;15917;50.014;8.352;2023-04-03T10:12:03;8.90;99.90
28761;DHT22;15917;50.014;8.352;2023-04-03T10:14:34;9.00;99.90
28761;DHT22;15917;50.014;8.352;2023-04-03T10:17:14;9.20;99.90
28761;DHT22;15917;50.014;8.352;2023-04-03T10:28:02;9.50;99.90
28761;DHT22;15917;50.014;8.352;2023-04-03T10:42:02;11.70;99.90
28761;DHT22;15917;50.014;8.352;2023-04-03T10:44:36;11.70;99.90
28761;DHT22;15917;50.014;8.352;2023-04-03T10:47:16;11.60;99.90
28761;DHT22;15917;50.014;8.352;2023-04-03T10:50:10;11.50;99.90
28761;DHT22;15917;50.014;8.352;2023-04-03T10:52:46;11.40;99.90
28761;DHT22;15917;50.014;8.352;2023-04-03T10:55:40;11.60;99.90
28761;DHT22;15917;50.014;8.352;2023-04-03T10:58:20;11.90;99.90
28761;DHT22;15917;50.014;8.352;2023-04-03T11:00:50;12.20;99.90
28761;DHT22;15917;50.014;8.352;2023-04-03T11:03:30;12.10;99.90
28761;DHT22;15917;50.014;8.352;2023-04-03T11:06:02;11.90;99.90
28761;DHT22;15917;50.014;8.352;2023-04-03T11:08:36;11.80;99.90
28761;DHT22;15917;50.014;8.352;2023-04-03T11:11:09;11.70;99.90
28761;DHT22;15917;50.014;8.352;2023-04-03T11:13:43;11.60;99.90
28761;DHT22;15917;50.014;8.352;2023-04-03T11:16:20;11.40;99.90
28761;DHT22;15917;50.014;8.352;2023-04-03T11:19:15;11.30;99.90
28761;DHT22;15917;50.014;8.352;2023-04-03T11:21:46;11.50;99.90
28761;DHT22;15917;50.014;8.352;2023-04-03T11:24:23;11.60;99.90
28761;DHT22;15917;50.014;8.352;2023-04-03T11:26:51;11.70;99.90
28761;DHT22;15917;50.014;8.352;2023-04-03T11:29:24;11.80;99.90
28761;DHT22;15917;50.014;8.352;2023-04-03T11:32:02;11.50;99.90
28761;DHT22;15917;50.014;8.352;2023-04-03T11:34:33;11.20;99.90
28761;DHT22;15917;50.014;8.352;2023-04-03T11:37:05;11.30;99.90
28761;DHT22;15917;50.014;8.352;2023-04-03T11:39:37;11.70;99.90
28761;DHT22;15917;50.014;8.352;2023-04-03T11:42:24;12.20;99.90
28761;DHT22;15917;50.014;8.352;2023-04-03T12:08:25;11.80;97.60
28761;DHT22;15917;50.014;8.352;2023-04-03T12:26:46;11.50;95.40
28761;DHT22;15917;50.014;8.352;2023-04-03T12:32:09;11.70;96.10
28761;DHT22;15917;50.014;8.352;2023-04-03T12:45:44;12.40;92.90
28761;DHT22;15917;50.014;8.352;2023-04-03T12:48:18;12.50;92.50
28761;DHT22;15917;50.014;8.352;2023-04-03T12:50:47;12.70;99.90
28761;DHT22;15917;50.014;8.352;2023-04-03T12:53:16;13.20;99.90
28761;DHT22;15917;50.014;8.352;2023-04-03T12:55:43;13.80;94.60
28761;DHT22;15917;50.014;8.352;2023-04-03T12:58:23;14.00;90.80
28761;DHT22;15917;50.014;8.352;2023-04-03T13:01:03;13.60;90.90
28761;DHT22;15917;50.014;8.352;2023-04-03T13:03:29;13.60;92.20
28761;DHT22;15917;50.014;8.352;2023-04-03T13:05:59;14.10;91.50
28761;DHT22;15917;50.014;8.352;2023-04-03T13:08:25;14.30;91.40
28761;DHT22;15917;50.014;8.352;2023-04-03T13:11:10;14.10;88.30
28761;DHT22;15917;50.014;8.352;2023-04-03T13:13:37;14.40;93.80
28761;DHT22;15917;50.014;8.352;2023-04-03T13:16:11;15.20;93.10
28761;DHT22;15917;50.014;8.352;2023-04-03T13:18:38;15.60;91.10
28761;DHT22;15917;50.014;8.352;2023-04-03T13:21:13;15.40;87.70
28761;DHT22;15917;50.014;8.352;2023-04-03T13:23:43;14.70;91.60
28761;DHT22;15917;50.014;8.352;2023-04-03T13:26:10;14.50;91.30
28761;DHT22;15917;50.014;8.352;2023-04-03T13:28:38;14.80;88.10
28761;DHT22;15917;50.014;8.352;2023-04-03T13:33:51;14.00;84.80
28761;DHT22;15917;50.014;8.352;2023-04-03T13:36:21;13.30;84.70
28761;DHT22;15917;50.014;8.352;2023-04-03T13:41:41;13.30;86.90
28761;DHT22;15917;50.014;8.352;2023-04-03T13:46:55;13.40;87.80
28761;DHT22;15917;50.014;8.352;2023-04-03T13:49:29;13.20;83.90
28761;DHT22;15917;50.014;8.352;2023-04-03T13:51:54;13.10;84.70
28761;DHT22;15917;50.014;8.352;2023-04-03T13:54:23;12.90;85.20
28761;DHT22;15917;50.014;8.352;2023-04-03T13:56:55;12.80;85.60
28761;DHT22;15917;50.014;8.352;2023-04-03T13:59:30;12.60;86.20
28761;DHT22;15917;50.014;8.352;2023-04-03T14:04:30;12.80;86.90
28761;DHT22;15917;50.014;8.352;2023-04-03T14:06:57;12.90;87.00
28761;DHT22;15917;50.014;8.352;2023-04-03T14:09:25;13.00;86.00
28761;DHT22;15917;50.014;8.352;2023-04-03T14:11:55;13.20;85.60
28761;DHT22;15917;50.014;8.352;2023-04-03T14:14:27;12.80;84.00
28761;DHT22;15917;50.014;8.352;2023-04-03T14:16:58;12.80;84.90
28761;DHT22;15917;50.014;8.352;2023-04-03T14:19:31;12.70;85.70
28761;DHT22;15917;50.014;8.352;2023-04-03T14:21:58;12.60;85.00
28761;DHT22;15917;50.014;8.352;2023-04-03T14:24:24;12.60;84.70
28761;DHT22;15917;50.014;8.352;2023-04-03T14:26:52;13.30;99.90
28761;DHT22;15917;50.014;8.352;2023-04-03T14:29:18;14.20;95.40
28761;DHT22;15917;50.014;8.352;2023-04-03T14:31:46;14.50;85.20
28761;DHT22;15917;50.014;8.352;2023-04-03T14:34:14;14.20;81.90
28761;DHT22;15917;50.014;8.352;2023-04-03T14:36:41;13.50;81.40
28761;DHT22;15917;50.014;8.352;2023-04-03T14:39:11;13.30;85.00
28761;DHT22;15917;50.014;8.352;2023-04-03T14:41:42;13.40;85.20
28761;DHT22;15917;50.014;8.352;2023-04-03T14:44:08;13.20;83.10
28761;DHT22;15917;50.014;8.352;2023-04-03T14:46:39;12.90;83.70
28761;DHT22;15917;50.014;8.352;2023-04-03T14:49:15;12.90;84.60
28761;DHT22;15917;50.014;8.352;2023-04-03T14:51:41;12.80;83.20
28761;DHT22;15917;50.014;8.352;2023-04-03T14:54:13;12.60;82.80
28761;DHT22;15917;50.014;8.352;2023-04-03T14:56:39;12.40;81.70
28761;DHT22;15917;50.014;8.352;2023-04-03T14:59:08;12.40;83.90
28761;DHT22;15917;50.014;8.352;2023-04-03T15:01:35;12.30;83.30
28761;DHT22;15917;50.014;8.352;2023-04-03T15:04:00;12.40;84.80
28761;DHT22;15917;50.014;8.352;2023-04-03T15:06:26;12.30;86.50
28761;DHT22;15917;50.014;8.352;2023-04-03T15:08:52;12.40;87.30
28761;DHT22;15917;50.014;8.352;2023-04-03T15:11:17;12.50;84.00
28761;DHT22;15917;50.014;8.352;2023-04-03T15:13:43;12.60;85.70
28761;DHT22;15917;50.014;8.352;2023-04-03T15:16:17;12.60;87.00
28761;DHT22;15917;50.014;8.352;2023-04-03T15:18:44;12.70;86.70
28761;DHT22;15917;50.014;8.352;2023-04-03T15:21:10;12.70;83.80
28761;DHT22;15917;50.014;8.352;2023-04-03T15:23:36;12.60;82.70
28761;DHT22;15917;50.014;8.352;2023-04-03T15:26:02;12.60;83.60
28761;DHT22;15917;50.014;8.352;2023-04-03T15:28:37;12.50;84.30
28761;DHT22;15917;50.014;8.352;2023-04-03T15:31:04;12.50;83.50
28761;DHT22;15917;50.014;8.352;2023-04-03T15:33:32;12.60;84.20
28761;DHT22;15917;50.014;8.352;2023-04-03T15:35:58;12.60;83.30
28761;DHT22;15917;50.014;8.352;2023-04-03T15:38:24;12.60;82.80
28761;DHT22;15917;50.014;8.352;2023-04-03T15:40:50;12.30;83.50
28761;DHT22;15917;50.014;8.352;2023-04-03T15:43:15;12.30;84.10
28761;DHT22;15917;50.014;8.352;2023-04-03T15:45:41;12.20;83.40
28761;DHT22;15917;50.014;8.352;2023-04-03T15:48:09;12.10;82.60
28761;DHT22;15917;50.014;8.352;2023-04-03T15:50:35;11.90;83.70
28761;DHT22;15917;50.014;8.352;2023-04-03T15:53:01;11.90;84.30
28761;DHT22;15917;50.014;8.352;2023-04-03T15:55:33;11.90;83.40
28761;DHT22;15917;50.014;8.352;2023-04-03T15:58:00;11.80;83.70
28761;DHT22;15917;50.014;8.352;2023-04-03T16:00:27;11.80;83.50
28761;DHT22;15917;50.014;8.352;2023-04-03T16:02:59;11.90;84.90
28761;DHT22;15917;50.014;8.352;2023-04-03T16:05:26;11.80;84.90
28761;DHT22;15917;50.014;8.352;2023-04-03T16:07:52;11.60;86.30
28761;DHT22;15917;50.014;8.352;2023-04-03T16:10:18;11.60;87.20
28761;DHT22;15917;50.014;8.352;2023-04-03T16:12:44;11.50;87.40
28761;DHT22;15917;50.014;8.352;2023-04-03T16:15:11;11.50;87.60
28761;DHT22;15917;50.014;8.352;2023-04-03T16:17:38;11.30;86.80
28761;DHT22;15917;50.014;8.352;2023-04-03T16:20:05;11.20;87.50
28761;DHT22;15917;50.014;8.352;2023-04-03T16:22:31;11.00;88.50
28761;DHT22;15917;50.014;8.352;2023-04-03T16:24:57;10.80;86.90
28761;DHT22;15917;50.014;8.352;2023-04-03T16:27:23;10.70;86.70
28761;DHT22;15917;50.014;8.352;2023-04-03T16:29:54;10.40;86.20
28761;DHT22;15917;50.014;8.352;2023-04-03T16:32:20;10.30;87.50
28761;DHT22;15917;50.014;8.352;2023-04-03T16:34:46;10.10;88.20
28761;DHT22;15917;50.014;8.352;2023-04-03T16:37:11;10.00;90.20
28761;DHT22;15917;50.014;8.352;2023-04-03T16:39:37;9.80;89.80
28761;DHT22;15917;50.014;8.352;2023-04-03T16:42:02;9.70;89.70
28761;DHT22;15917;50.014;8.352;2023-04-03T16:44:28;9.50;90.60
28761;DHT22;15917;50.014;8.352;2023-04-03T16:46:54;9.40;91.60
28761;DHT22;15917;50.014;8.352;2023-04-03T16:49:19;9.40;92.10
28761;DHT22;15917;50.014;8.352;2023-04-03T16:51:45;9.30;92.30
28761;DHT22;15917;50.014;8.352;2023-04-03T16:54:11;9.20;92.20
28761;DHT22;15917;50.014;8.352;2023-04-03T16:56:39;9.00;90.70
28761;DHT22;15917;50.014;8.352;2023-04-03T16:59:05;9.00;90.90
28761;DHT22;15917;50.014;8.352;2023-04-03T17:01:31;8.80;91.40
28761;DHT22;15917;50.014;8.352;2023-04-03T17:03:57;8.80;92.30
28761;DHT22;15917;50.014;8.352;2023-04-03T17:06:22;8.70;92.80
28761;DHT22;15917;50.014;8.352;2023-04-03T17:08:49;8.60;92.90
28761;DHT22;15917;50.014;8.352;2023-04-03T17:11:28;8.60;93.20
28761;DHT22;15917;50.014;8.352;2023-04-03T17:13:55;8.50;93.70
28761;DHT22;15917;50.014;8.352;2023-04-03T17:16:21;8.50;94.20
28761;DHT22;15917;50.014;8.352;2023-04-03T17:18:47;8.40;93.30
28761;DHT22;15917;50.014;8.352;2023-04-03T17:21:13;8.30;92.90
28761;DHT22;15917;50.014;8.352;2023-04-03T17:23:41;8.30;93.40
28761;DHT22;15917;50.014;8.352;2023-04-03T17:26:07;8.20;93.90
28761;DHT22;15917;50.014;8.352;2023-04-03T17:28:33;8.10;94.50
28761;DHT22;15917;50.014;8.352;2023-04-03T17:31:00;8.10;95.00
28761;DHT22;15917;50.014;8.352;2023-04-03T17:33:27;8.00;95.00
28761;DHT22;15917;50.014;8.352;2023-04-03T17:35:57;7.90;94.50
28761;DHT22;15917;50.014;8.352;2023-04-03T17:38:22;7.90;94.50
28761;DHT22;15917;50.014;8.352;2023-04-03T17:40:48;7.80;93.90